sensor_id;sensor_type;location;lat;lon;timestamp;temperature;humidity
21271;DHT22;10795;50.796;3.860;2024-03-02T00:01:07;6.90;99.90
21271;DHT22;10795;50.796;3.860;2024-03-02T00:03:36;6.90;99.90
21271;DHT22;10795;50.796;3.860;2024-03-02T00:06:02;6.90;99.90
21271;DHT22;10795;50.796;3.860;2024-03-02T00:08:31;6.90;99.90
21271;DHT22;10795;50.796;3.860;2024-03-02T00:11:00;6.90;99.90
21271;DHT22;10795;50.796;3.860;2024-03-02T00:13:30;6.90;99.90
21271;DHT22;10795;50.796;3.860;2024-03-02T00:15:58;6.80;99.90
21271;DHT22;10795;50.796;3.860;2024-03-02T00:18:34;7.00;99.90
21271;DHT22;10795;50.796;3.860;2024-03-02T00:21:00;6.90;99.90
21271;DHT22;10795;50.796;3.860;2024-03-02T00:23:32;6.90;99.90
21271;DHT22;10795;50.796;3.860;2024-03-02T00:25:59;6.90;99.90
21271;DHT22;10795;50.796;3.860;2024-03-02T00:28:34;6.90;99.90
21271;DHT22;10795;50.796;3.860;2024-03-02T00:31:05;6.80;99.90
21271;DHT22;10795;50.796;3.860;2024-03-02T00:33:34;6.80;99.90
21271;DHT22;10795;50.796;3.860;2024-03-02T00:36:06;6.90;99.90
21271;DHT22;10795;50.796;3.860;2024-03-02T00:38:33;6.80;99.90
21271;DHT22;10795;50.796;3.860;2024-03-02T00:41:04;6.80;99.90
21271;DHT22;10795;50.796;3.860;2024-03-02T00:43:47;6.80;99.90
21271;DHT22;10795;50.796;3.860;2024-03-02T00:46:17;6.80;99.90
21271;DHT22;10795;50.796;3.860;2024-03-02T00:48:54;6.80;99.90
21271;DHT22;10795;50.796;3.860;2024-03-02T00:51:21;6.80;99.90
21271;DHT22;10795;50.796;3.860;2024-03-02T00:53:55;6.80;99.90
21271;DHT22;10795;50.796;3.860;2024-03-02T00:56:26;6.70;99.90
21271;DHT22;10795;50.796;3.860;2024-03-02T00:58:55;6.80;99.90
21271;DHT22;10795;50.796;3.860;2024-03-02T01:01:21;6.90;99.90
21271;DHT22;10795;50.796;3.860;2024-03-02T01:03:48;7.00;99.90
21271;DHT22;10795;50.796;3.860;2024-03-02T01:06:15;6.90;99.90
21271;DHT22;10795;50.796;3.860;2024-03-02T01:08:43;6.80;99.90
21271;DHT22;10795;50.796;3.860;2024-03-02T01:11:12;6.80;99.90
21271;DHT22;10795;50.796;3.860;2024-03-02T01:13:40;6.90;99.90
21271;DHT22;10795;50.796;3.860;2024-03-02T01:16:06;7.00;99.90
21271;DHT22;10795;50.796;3.860;2024-03-02T01:18:32;7.00;99.90
21271;DHT22;10795;50.796;3.860;2024-03-02T01:21:00;7.00;99.90
21271;DHT22;10795;50.796;3.860;2024-03-02T01:23:29;6.90;99.90
21271;DHT22;10795;50.796;3.860;2024-03-02T01:25:55;6.90;99.90
21271;DHT22;10795;50.796;3.860;2024-03-02T01:28:23;6.80;99.90
21271;DHT22;10795;50.796;3.860;2024-03-02T01:30:51;6.80;99.90
21271;DHT22;10795;50.796;3.860;2024-03-02T01:33:20;6.70;99.90
21271;DHT22;10795;50.796;3.860;2024-03-02T01:35:49;6.60;99.90
21271;DHT22;10795;50.796;3.860;2024-03-02T01:38:15;6.50;99.90
21271;DHT22;10795;50.796;3.860;2024-03-02T01:40:42;6.50;99.90
21271;DHT22;10795;50.796;3.860;2024-03-02T01:43:12;6.70;99.90
21271;DHT22;10795;50.796;3.860;2024-03-02T01:45:40;6.70;99.90
21271;DHT22;10795;50.796;3.860;2024-03-02T01:48:06;6.60;99.90
21271;DHT22;10795;50.796;3.860;2024-03-02T01:50:35;6.60;99.90
21271;DHT22;10795;50.796;3.860;2024-03-02T01:53:01;6.60;99.90
21271;DHT22;10795;50.796;3.860;2024-03-02T01:55:32;6.60;99.90
21271;DHT22;10795;50.796;3.860;2024-03-02T01:58:02;6.60;99.90
21271;DHT22;10795;50.796;3.860;2024-03-02T02:00:30;6.60;99.90
21271;DHT22;10795;50.796;3.860;2024-03-02T02:02:58;6.60;99.90
21271;DHT22;10795;50.796;3.860;2024-03-02T02:05:23;6.70;99.90
21271;DHT22;10795;50.796;3.860;2024-03-02T02:07:52;6.90;99.90
21271;DHT22;10795;50.796;3.860;2024-03-02T02:10:18;6.80;99.90
21271;DHT22;10795;50.796;3.860;2024-03-02T02:12:44;6.80;99.90
21271;DHT22;10795;50.796;3.860;2024-03-02T02:15:29;6.90;99.90
21271;DHT22;10795;50.796;3.860;2024-03-02T02:17:58;6.80;99.90
21271;DHT22;10795;50.796;3.860;2024-03-02T02:20:25;6.90;99.90
21271;DHT22;10795;50.796;3.860;2024-03-02T02:23:04;6.90;99.90
21271;DHT22;10795;50.796;3.860;2024-03-02T02:25:36;6.90;99.90
21271;DHT22;10795;50.796;3.860;2024-03-02T02:28:02;6.90;99.90
21271;DHT22;10795;50.796;3.860;2024-03-02T02:30:30;6.90;99.90
21271;DHT22;10795;50.796;3.860;2024-03-02T02:32:56;6.90;99.90
21271;DHT22;10795;50.796;3.860;2024-03-02T02:35:22;6.80;99.90
21271;DHT22;10795;50.796;3.860;2024-03-02T02:37:51;7.00;99.90
21271;DHT22;10795;50.796;3.860;2024-03-02T02:40:17;7.00;99.90
21271;DHT22;10795;50.796;3.860;2024-03-02T02:42:49;7.00;99.90
21271;DHT22;10795;50.796;3.860;2024-03-02T02:45:15;7.00;99.90
21271;DHT22;10795;50.796;3.860;2024-03-02T02:47:42;6.90;99.90
21271;DHT22;10795;50.796;3.860;2024-03-02T02:50:08;6.80;99.90
21271;DHT22;10795;50.796;3.860;2024-03-02T02:52:36;6.90;99.90
21271;DHT22;10795;50.796;3.860;2024-03-02T02:55:04;6.80;99.90
21271;DHT22;10795;50.796;3.860;2024-03-02T02:57:34;6.70;99.90
21271;DHT22;10795;50.796;3.860;2024-03-02T03:00:14;6.70;99.90
21271;DHT22;10795;50.796;3.860;2024-03-02T03:02:41;6.70;99.90
21271;DHT22;10795;50.796;3.860;2024-03-02T03:05:11;6.70;99.90
21271;DHT22;10795;50.796;3.860;2024-03-02T03:07:38;6.60;99.90
21271;DHT22;10795;50.796;3.860;2024-03-02T03:10:05;6.70;99.90
21271;DHT22;10795;50.796;3.860;2024-03-02T03:12:33;6.60;99.90
21271;DHT22;10795;50.796;3.860;2024-03-02T03:15:02;6.60;99.90
21271;DHT22;10795;50.796;3.860;2024-03-02T03:17:30;6.60;99.90
21271;DHT22;10795;50.796;3.860;2024-03-02T03:19:55;6.60;99.90
21271;DHT22;10795;50.796;3.860;2024-03-02T03:22:21;6.60;99.90
21271;DHT22;10795;50.796;3.860;2024-03-02T03:24:50;6.60;99.90
21271;DHT22;10795;50.796;3.860;2024-03-02T03:27:16;6.60;99.90
21271;DHT22;10795;50.796;3.860;2024-03-02T03:29:42;6.40;99.90
21271;DHT22;10795;50.796;3.860;2024-03-02T03:32:08;6.60;99.90
21271;DHT22;10795;50.796;3.860;2024-03-02T03:34:34;6.60;99.90
21271;DHT22;10795;50.796;3.860;2024-03-02T03:37:00;6.60;99.90
21271;DHT22;10795;50.796;3.860;2024-03-02T03:39:26;6.70;99.90
21271;DHT22;10795;50.796;3.860;2024-03-02T03:41:56;6.70;99.90
21271;DHT22;10795;50.796;3.860;2024-03-02T03:44:22;6.70;99.90
21271;DHT22;10795;50.796;3.860;2024-03-02T03:46:48;6.80;99.90
21271;DHT22;10795;50.796;3.860;2024-03-02T03:49:14;6.80;99.90
21271;DHT22;10795;50.796;3.860;2024-03-02T03:51:39;6.70;99.90
21271;DHT22;10795;50.796;3.860;2024-03-02T03:54:08;6.80;99.90
21271;DHT22;10795;50.796;3.860;2024-03-02T03:56:33;6.80;99.90
21271;DHT22;10795;50.796;3.860;2024-03-02T03:58:59;6.80;99.90
21271;DHT22;10795;50.796;3.860;2024-03-02T04:01:28;6.60;99.90
21271;DHT22;10795;50.796;3.860;2024-03-02T04:03:54;6.60;99.90
21271;DHT22;10795;50.796;3.860;2024-03-02T04:06:22;6.60;99.90
21271;DHT22;10795;50.796;3.860;2024-03-02T04:08:47;6.50;99.90
21271;DHT22;10795;50.796;3.860;2024-03-02T04:11:16;6.60;99.90
21271;DHT22;10795;50.796;3.860;2024-03-02T04:13:42;6.40;99.90
21271;DHT22;10795;50.796;3.860;2024-03-02T04:16:10;6.40;99.90
21271;DHT22;10795;50.796;3.860;2024-03-02T04:18:36;6.50;99.90
21271;DHT22;10795;50.796;3.860;2024-03-02T04:21:07;6.50;99.90
21271;DHT22;10795;50.796;3.860;2024-03-02T04:23:33;6.60;99.90
21271;DHT22;10795;50.796;3.860;2024-03-02T04:25:59;6.50;99.90
21271;DHT22;10795;50.796;3.860;2024-03-02T04:28:25;6.50;99.90
21271;DHT22;10795;50.796;3.860;2024-03-02T04:30:53;6.40;99.90
21271;DHT22;10795;50.796;3.860;2024-03-02T04:33:19;6.20;99.90
21271;DHT22;10795;50.796;3.860;2024-03-02T04:35:45;6.10;99.90
21271;DHT22;10795;50.796;3.860;2024-03-02T04:38:15;6.30;99.90
21271;DHT22;10795;50.796;3.860;2024-03-02T04:40:43;6.30;99.90
21271;DHT22;10795;50.796;3.860;2024-03-02T04:43:09;6.30;99.90
21271;DHT22;10795;50.796;3.860;2024-03-02T04:45:38;6.20;99.90
21271;DHT22;10795;50.796;3.860;2024-03-02T04:48:04;6.20;99.90
21271;DHT22;10795;50.796;3.860;2024-03-02T04:50:33;5.90;99.90
21271;DHT22;10795;50.796;3.860;2024-03-02T04:53:01;5.90;99.90
21271;DHT22;10795;50.796;3.860;2024-03-02T04:55:27;5.80;99.90
21271;DHT22;10795;50.796;3.860;2024-03-02T04:57:55;5.80;99.90
21271;DHT22;10795;50.796;3.860;2024-03-02T05:00:21;6.00;99.90
21271;DHT22;10795;50.796;3.860;2024-03-02T05:02:47;6.00;99.90
21271;DHT22;10795;50.796;3.860;2024-03-02T05:05:13;6.00;99.90
21271;DHT22;10795;50.796;3.860;2024-03-02T05:07:43;5.90;99.90
21271;DHT22;10795;50.796;3.860;2024-03-02T05:10:10;5.90;99.90
21271;DHT22;10795;50.796;3.860;2024-03-02T05:12:38;6.00;99.90
21271;DHT22;10795;50.796;3.860;2024-03-02T05:15:15;5.80;99.90
21271;DHT22;10795;50.796;3.860;2024-03-02T05:17:44;5.80;99.90
21271;DHT22;10795;50.796;3.860;2024-03-02T05:20:12;5.70;99.90
21271;DHT22;10795;50.796;3.860;2024-03-02T05:22:40;5.70;99.90
21271;DHT22;10795;50.796;3.860;2024-03-02T05:25:08;5.90;99.90
21271;DHT22;10795;50.796;3.860;2024-03-02T05:27:36;5.60;99.90
21271;DHT22;10795;50.796;3.860;2024-03-02T05:30:04;5.70;99.90
21271;DHT22;10795;50.796;3.860;2024-03-02T05:32:32;5.70;99.90
21271;DHT22;10795;50.796;3.860;2024-03-02T05:34:58;5.70;99.90
21271;DHT22;10795;50.796;3.860;2024-03-02T05:37:26;5.70;99.90
21271;DHT22;10795;50.796;3.860;2024-03-02T05:43:30;5.60;99.90
21271;DHT22;10795;50.796;3.860;2024-03-02T05:45:56;5.60;99.90
21271;DHT22;10795;50.796;3.860;2024-03-02T05:48:22;5.40;99.90
21271;DHT22;10795;50.796;3.860;2024-03-02T05:50:50;5.40;99.90
21271;DHT22;10795;50.796;3.860;2024-03-02T05:53:15;5.60;99.90
21271;DHT22;10795;50.796;3.860;2024-03-02T05:55:43;5.50;99.90
21271;DHT22;10795;50.796;3.860;2024-03-02T05:58:15;5.40;99.90
21271;DHT22;10795;50.796;3.860;2024-03-02T06:01:02;5.40;99.90
21271;DHT22;10795;50.796;3.860;2024-03-02T06:03:30;5.40;99.90
21271;DHT22;10795;50.796;3.860;2024-03-02T06:05:58;5.50;99.90
21271;DHT22;10795;50.796;3.860;2024-03-02T06:08:26;5.50;99.90
21271;DHT22;10795;50.796;3.860;2024-03-02T06:10:52;5.60;99.90
21271;DHT22;10795;50.796;3.860;2024-03-02T06:13:24;5.50;99.90
21271;DHT22;10795;50.796;3.860;2024-03-02T06:15:52;5.60;99.90
21271;DHT22;10795;50.796;3.860;2024-03-02T06:18:18;5.60;99.90
21271;DHT22;10795;50.796;3.860;2024-03-02T06:20:46;5.40;99.90
21271;DHT22;10795;50.796;3.860;2024-03-02T06:23:12;5.50;99.90
21271;DHT22;10795;50.796;3.860;2024-03-02T06:25:40;5.50;99.90
21271;DHT22;10795;50.796;3.860;2024-03-02T06:28:06;5.50;99.90
21271;DHT22;10795;50.796;3.860;2024-03-02T06:30:35;5.40;99.90
21271;DHT22;10795;50.796;3.860;2024-03-02T06:33:00;5.30;99.90
21271;DHT22;10795;50.796;3.860;2024-03-02T06:35:31;5.30;99.90
21271;DHT22;10795;50.796;3.860;2024-03-02T06:37:57;5.40;99.90
21271;DHT22;10795;50.796;3.860;2024-03-02T06:40:23;5.40;99.90
21271;DHT22;10795;50.796;3.860;2024-03-02T06:42:49;5.30;99.90
21271;DHT22;10795;50.796;3.860;2024-03-02T06:45:14;5.40;99.90
21271;DHT22;10795;50.796;3.860;2024-03-02T06:47:40;5.40;99.90
21271;DHT22;10795;50.796;3.860;2024-03-02T06:50:06;5.50;99.90
21271;DHT22;10795;50.796;3.860;2024-03-02T06:52:35;5.50;99.90
21271;DHT22;10795;50.796;3.860;2024-03-02T06:55:02;5.40;99.90
21271;DHT22;10795;50.796;3.860;2024-03-02T06:57:27;5.50;99.90
21271;DHT22;10795;50.796;3.860;2024-03-02T06:59:53;5.50;99.90
21271;DHT22;10795;50.796;3.860;2024-03-02T07:02:24;5.50;99.90
21271;DHT22;10795;50.796;3.860;2024-03-02T07:04:53;5.50;99.90
21271;DHT22;10795;50.796;3.860;2024-03-02T07:07:19;5.50;99.90
21271;DHT22;10795;50.796;3.860;2024-03-02T07:09:47;5.50;99.90
21271;DHT22;10795;50.796;3.860;2024-03-02T07:12:16;5.50;99.90
21271;DHT22;10795;50.796;3.860;2024-03-02T07:14:42;5.70;99.90
21271;DHT22;10795;50.796;3.860;2024-03-02T07:17:26;5.80;99.90
21271;DHT22;10795;50.796;3.860;2024-03-02T07:19:55;5.90;99.90
21271;DHT22;10795;50.796;3.860;2024-03-02T07:22:23;5.90;99.90
21271;DHT22;10795;50.796;3.860;2024-03-02T07:24:49;5.90;99.90
21271;DHT22;10795;50.796;3.860;2024-03-02T07:27:17;5.90;99.90
21271;DHT22;10795;50.796;3.860;2024-03-02T07:29:43;5.90;99.90
21271;DHT22;10795;50.796;3.860;2024-03-02T07:32:12;6.10;99.90
21271;DHT22;10795;50.796;3.860;2024-03-02T07:34:38;6.20;99.90
21271;DHT22;10795;50.796;3.860;2024-03-02T07:37:04;6.30;99.90
21271;DHT22;10795;50.796;3.860;2024-03-02T07:39:36;6.40;99.90
21271;DHT22;10795;50.796;3.860;2024-03-02T07:42:01;6.50;99.90
21271;DHT22;10795;50.796;3.860;2024-03-02T07:44:27;6.60;99.90
21271;DHT22;10795;50.796;3.860;2024-03-02T07:46:53;6.70;99.90
21271;DHT22;10795;50.796;3.860;2024-03-02T07:49:21;6.70;99.90
21271;DHT22;10795;50.796;3.860;2024-03-02T07:51:47;6.70;99.90
21271;DHT22;10795;50.796;3.860;2024-03-02T07:54:13;7.00;99.90
21271;DHT22;10795;50.796;3.860;2024-03-02T07:56:48;7.00;99.90
21271;DHT22;10795;50.796;3.860;2024-03-02T07:59:16;7.10;99.90
21271;DHT22;10795;50.796;3.860;2024-03-02T08:01:49;7.30;99.90
21271;DHT22;10795;50.796;3.860;2024-03-02T08:04:16;7.30;99.90
21271;DHT22;10795;50.796;3.860;2024-03-02T08:06:45;7.50;99.90
21271;DHT22;10795;50.796;3.860;2024-03-02T08:09:11;7.40;99.90
21271;DHT22;10795;50.796;3.860;2024-03-02T08:11:37;7.60;99.90
21271;DHT22;10795;50.796;3.860;2024-03-02T08:14:13;7.60;99.90
21271;DHT22;10795;50.796;3.860;2024-03-02T08:16:39;7.90;99.90
21271;DHT22;10795;50.796;3.860;2024-03-02T08:19:05;7.90;99.90
21271;DHT22;10795;50.796;3.860;2024-03-02T08:21:31;8.00;99.90
21271;DHT22;10795;50.796;3.860;2024-03-02T08:24:01;8.00;99.90
21271;DHT22;10795;50.796;3.860;2024-03-02T08:26:30;7.70;99.90
21271;DHT22;10795;50.796;3.860;2024-03-02T08:29:03;8.00;99.90
21271;DHT22;10795;50.796;3.860;2024-03-02T08:31:35;8.00;99.90
21271;DHT22;10795;50.796;3.860;2024-03-02T08:34:04;8.20;99.90
21271;DHT22;10795;50.796;3.860;2024-03-02T08:36:30;8.30;99.90
21271;DHT22;10795;50.796;3.860;2024-03-02T08:38:58;8.20;99.90
21271;DHT22;10795;50.796;3.860;2024-03-02T08:41:24;8.30;99.90
21271;DHT22;10795;50.796;3.860;2024-03-02T08:43:50;8.50;99.90
21271;DHT22;10795;50.796;3.860;2024-03-02T08:46:16;7.90;99.90
21271;DHT22;10795;50.796;3.860;2024-03-02T08:48:42;8.00;99.90
21271;DHT22;10795;50.796;3.860;2024-03-02T08:51:08;8.50;99.90
21271;DHT22;10795;50.796;3.860;2024-03-02T08:53:36;8.60;99.90
21271;DHT22;10795;50.796;3.860;2024-03-02T08:56:02;8.70;99.90
21271;DHT22;10795;50.796;3.860;2024-03-02T08:58:32;8.50;99.90
21271;DHT22;10795;50.796;3.860;2024-03-02T09:00:58;8.20;99.90
21271;DHT22;10795;50.796;3.860;2024-03-02T09:03:23;8.40;99.90
21271;DHT22;10795;50.796;3.860;2024-03-02T09:05:49;8.90;99.90
21271;DHT22;10795;50.796;3.860;2024-03-02T09:08:18;8.90;99.90
21271;DHT22;10795;50.796;3.860;2024-03-02T09:10:43;8.70;99.90
21271;DHT22;10795;50.796;3.860;2024-03-02T09:13:14;9.10;99.90
21271;DHT22;10795;50.796;3.860;2024-03-02T09:15:40;8.80;99.90
21271;DHT22;10795;50.796;3.860;2024-03-02T09:18:06;9.00;99.90
21271;DHT22;10795;50.796;3.860;2024-03-02T09:20:35;9.30;99.90
21271;DHT22;10795;50.796;3.860;2024-03-02T09:23:18;9.10;99.90
21271;DHT22;10795;50.796;3.860;2024-03-02T09:25:47;9.40;99.90
21271;DHT22;10795;50.796;3.860;2024-03-02T09:28:17;9.50;99.90
21271;DHT22;10795;50.796;3.860;2024-03-02T09:30:42;9.30;99.90
21271;DHT22;10795;50.796;3.860;2024-03-02T09:33:08;9.80;99.90
21271;DHT22;10795;50.796;3.860;2024-03-02T09:35:34;9.60;99.90
21271;DHT22;10795;50.796;3.860;2024-03-02T09:38:02;9.50;99.90
21271;DHT22;10795;50.796;3.860;2024-03-02T09:40:32;9.30;99.90
21271;DHT22;10795;50.796;3.860;2024-03-02T09:42:57;9.60;99.90
21271;DHT22;10795;50.796;3.860;2024-03-02T09:45:26;9.90;99.90
21271;DHT22;10795;50.796;3.860;2024-03-02T09:47:57;9.50;99.90
21271;DHT22;10795;50.796;3.860;2024-03-02T09:50:23;9.40;99.90
21271;DHT22;10795;50.796;3.860;2024-03-02T09:52:49;9.20;99.90
21271;DHT22;10795;50.796;3.860;2024-03-02T09:55:20;9.50;99.90
21271;DHT22;10795;50.796;3.860;2024-03-02T09:57:46;9.30;99.90
21271;DHT22;10795;50.796;3.860;2024-03-02T10:00:17;9.40;99.90
21271;DHT22;10795;50.796;3.860;2024-03-02T10:02:47;9.40;99.90
21271;DHT22;10795;50.796;3.860;2024-03-02T10:05:24;9.40;99.90
21271;DHT22;10795;50.796;3.860;2024-03-02T10:08:09;9.60;99.90
21271;DHT22;10795;50.796;3.860;2024-03-02T10:10:38;10.30;99.90
21271;DHT22;10795;50.796;3.860;2024-03-02T10:13:11;10.00;99.90
21271;DHT22;10795;50.796;3.860;2024-03-02T10:15:38;9.70;99.90
21271;DHT22;10795;50.796;3.860;2024-03-02T10:18:12;10.10;99.90
21271;DHT22;10795;50.796;3.860;2024-03-02T10:20:41;9.80;99.90
21271;DHT22;10795;50.796;3.860;2024-03-02T10:23:14;10.10;99.90
21271;DHT22;10795;50.796;3.860;2024-03-02T10:25:42;10.00;99.90
21271;DHT22;10795;50.796;3.860;2024-03-02T10:28:10;10.10;99.90
21271;DHT22;10795;50.796;3.860;2024-03-02T10:30:36;9.90;99.90
21271;DHT22;10795;50.796;3.860;2024-03-02T10:33:03;10.10;99.90
21271;DHT22;10795;50.796;3.860;2024-03-02T10:35:40;10.00;99.90
21271;DHT22;10795;50.796;3.860;2024-03-02T10:41:49;10.10;99.90
21271;DHT22;10795;50.796;3.860;2024-03-02T10:44:16;10.30;99.90
21271;DHT22;10795;50.796;3.860;2024-03-02T10:47:03;10.50;99.90
21271;DHT22;10795;50.796;3.860;2024-03-02T10:49:36;10.20;99.90
21271;DHT22;10795;50.796;3.860;2024-03-02T10:52:08;10.20;99.90
21271;DHT22;10795;50.796;3.860;2024-03-02T10:54:34;10.60;99.90
21271;DHT22;10795;50.796;3.860;2024-03-02T10:57:07;10.30;99.90
21271;DHT22;10795;50.796;3.860;2024-03-02T10:59:52;10.30;99.90
21271;DHT22;10795;50.796;3.860;2024-03-02T11:02:20;10.40;99.90
21271;DHT22;10795;50.796;3.860;2024-03-02T11:04:47;10.50;99.90
21271;DHT22;10795;50.796;3.860;2024-03-02T11:07:18;10.40;99.90
21271;DHT22;10795;50.796;3.860;2024-03-02T11:09:57;10.40;99.90
21271;DHT22;10795;50.796;3.860;2024-03-02T11:12:48;10.50;99.90
21271;DHT22;10795;50.796;3.860;2024-03-02T11:15:19;10.40;99.90
21271;DHT22;10795;50.796;3.860;2024-03-02T11:17:48;10.30;99.90
21271;DHT22;10795;50.796;3.860;2024-03-02T11:20:21;10.50;99.90
21271;DHT22;10795;50.796;3.860;2024-03-02T11:22:52;10.50;99.90
21271;DHT22;10795;50.796;3.860;2024-03-02T11:25:26;10.60;99.90
21271;DHT22;10795;50.796;3.860;2024-03-02T11:33:00;10.80;99.90
21271;DHT22;10795;50.796;3.860;2024-03-02T11:35:30;10.80;99.90
21271;DHT22;10795;50.796;3.860;2024-03-02T11:37:57;10.70;99.90
21271;DHT22;10795;50.796;3.860;2024-03-02T11:40:26;10.60;99.90
21271;DHT22;10795;50.796;3.860;2024-03-02T11:42:55;10.90;99.90
21271;DHT22;10795;50.796;3.860;2024-03-02T11:45:28;10.70;99.90
21271;DHT22;10795;50.796;3.860;2024-03-02T11:47:55;10.60;99.90
21271;DHT22;10795;50.796;3.860;2024-03-02T11:52:59;10.40;99.90
21271;DHT22;10795;50.796;3.860;2024-03-02T11:55:25;10.40;99.90
21271;DHT22;10795;50.796;3.860;2024-03-02T11:58:00;10.70;99.90
21271;DHT22;10795;50.796;3.860;2024-03-02T12:00:29;10.70;99.90
21271;DHT22;10795;50.796;3.860;2024-03-02T12:03:03;10.50;99.90
21271;DHT22;10795;50.796;3.860;2024-03-02T12:05:32;10.50;99.90
21271;DHT22;10795;50.796;3.860;2024-03-02T12:08:02;10.40;99.90
21271;DHT22;10795;50.796;3.860;2024-03-02T12:10:29;10.10;99.90
21271;DHT22;10795;50.796;3.860;2024-03-02T12:13:00;10.20;99.90
21271;DHT22;10795;50.796;3.860;2024-03-02T12:15:30;10.30;99.90
21271;DHT22;10795;50.796;3.860;2024-03-02T12:18:01;10.60;99.90
21271;DHT22;10795;50.796;3.860;2024-03-02T12:20:28;10.30;99.90
21271;DHT22;10795;50.796;3.860;2024-03-02T12:22:58;10.00;99.90
21271;DHT22;10795;50.796;3.860;2024-03-02T12:25:27;10.00;99.90
21271;DHT22;10795;50.796;3.860;2024-03-02T12:27:55;10.00;99.90
21271;DHT22;10795;50.796;3.860;2024-03-02T12:30:21;9.90;99.90
21271;DHT22;10795;50.796;3.860;2024-03-02T12:32:48;9.90;99.90
21271;DHT22;10795;50.796;3.860;2024-03-02T12:35:14;10.10;99.90
21271;DHT22;10795;50.796;3.860;2024-03-02T12:37:48;10.10;99.90
21271;DHT22;10795;50.796;3.860;2024-03-02T12:40:16;10.00;99.90
21271;DHT22;10795;50.796;3.860;2024-03-02T12:42:44;10.20;99.90
21271;DHT22;10795;50.796;3.860;2024-03-02T12:45:13;10.30;99.90
21271;DHT22;10795;50.796;3.860;2024-03-02T12:47:42;10.10;99.90
21271;DHT22;10795;50.796;3.860;2024-03-02T12:50:09;10.30;99.90
21271;DHT22;10795;50.796;3.860;2024-03-02T12:52:35;10.30;99.90
21271;DHT22;10795;50.796;3.860;2024-03-02T12:55:05;10.20;99.90
21271;DHT22;10795;50.796;3.860;2024-03-02T12:57:34;10.20;99.90
21271;DHT22;10795;50.796;3.860;2024-03-02T13:00:05;10.40;99.90
21271;DHT22;10795;50.796;3.860;2024-03-02T13:02:41;10.40;99.90
21271;DHT22;10795;50.796;3.860;2024-03-02T13:05:08;10.40;99.90
21271;DHT22;10795;50.796;3.860;2024-03-02T13:07:37;10.50;99.90
21271;DHT22;10795;50.796;3.860;2024-03-02T13:10:08;10.40;99.90
21271;DHT22;10795;50.796;3.860;2024-03-02T13:12:35;10.30;99.90
21271;DHT22;10795;50.796;3.860;2024-03-02T13:15:03;10.10;99.90
21271;DHT22;10795;50.796;3.860;2024-03-02T13:17:33;10.50;99.90
21271;DHT22;10795;50.796;3.860;2024-03-02T13:20:00;10.40;99.90
21271;DHT22;10795;50.796;3.860;2024-03-02T13:22:28;10.50;99.90
21271;DHT22;10795;50.796;3.860;2024-03-02T13:24:54;10.50;99.90
21271;DHT22;10795;50.796;3.860;2024-03-02T13:27:20;10.40;99.90
21271;DHT22;10795;50.796;3.860;2024-03-02T13:29:48;10.60;99.90
21271;DHT22;10795;50.796;3.860;2024-03-02T13:32:15;10.30;99.90
21271;DHT22;10795;50.796;3.860;2024-03-02T13:34:43;10.10;99.90
21271;DHT22;10795;50.796;3.860;2024-03-02T13:37:11;10.00;99.90
21271;DHT22;10795;50.796;3.860;2024-03-02T13:39:37;10.30;99.90
21271;DHT22;10795;50.796;3.860;2024-03-02T13:42:11;10.40;99.90
21271;DHT22;10795;50.796;3.860;2024-03-02T13:44:40;10.40;99.90
21271;DHT22;10795;50.796;3.860;2024-03-02T13:47:12;10.20;99.90
21271;DHT22;10795;50.796;3.860;2024-03-02T13:49:38;10.40;99.90
21271;DHT22;10795;50.796;3.860;2024-03-02T13:52:09;10.40;99.90
21271;DHT22;10795;50.796;3.860;2024-03-02T13:54:43;10.50;99.90
21271;DHT22;10795;50.796;3.860;2024-03-02T13:57:12;10.70;99.90
21271;DHT22;10795;50.796;3.860;2024-03-02T13:59:40;10.50;99.90
21271;DHT22;10795;50.796;3.860;2024-03-02T14:02:06;10.30;99.90
21271;DHT22;10795;50.796;3.860;2024-03-02T14:04:37;10.30;99.90
21271;DHT22;10795;50.796;3.860;2024-03-02T14:07:06;10.50;99.90
21271;DHT22;10795;50.796;3.860;2024-03-02T14:09:35;10.40;99.90
21271;DHT22;10795;50.796;3.860;2024-03-02T14:12:04;10.30;99.90
21271;DHT22;10795;50.796;3.860;2024-03-02T14:14:33;10.40;99.90
21271;DHT22;10795;50.796;3.860;2024-03-02T14:17:04;10.20;99.90
21271;DHT22;10795;50.796;3.860;2024-03-02T14:19:34;10.40;99.90
21271;DHT22;10795;50.796;3.860;2024-03-02T14:22:01;10.40;99.90
21271;DHT22;10795;50.796;3.860;2024-03-02T14:24:27;10.30;99.90
21271;DHT22;10795;50.796;3.860;2024-03-02T14:26:54;10.40;99.90
21271;DHT22;10795;50.796;3.860;2024-03-02T14:29:22;10.20;99.90
21271;DHT22;10795;50.796;3.860;2024-03-02T14:31:48;10.30;99.90
21271;DHT22;10795;50.796;3.860;2024-03-02T14:34:18;10.40;99.90
21271;DHT22;10795;50.796;3.860;2024-03-02T14:36:44;10.30;99.90
21271;DHT22;10795;50.796;3.860;2024-03-02T14:39:12;10.50;99.90
21271;DHT22;10795;50.796;3.860;2024-03-02T14:41:37;10.50;99.90
21271;DHT22;10795;50.796;3.860;2024-03-02T14:44:03;10.70;99.90
21271;DHT22;10795;50.796;3.860;2024-03-02T14:46:29;10.70;99.90
21271;DHT22;10795;50.796;3.860;2024-03-02T14:48:55;10.70;99.90
21271;DHT22;10795;50.796;3.860;2024-03-02T14:51:21;10.80;99.90
21271;DHT22;10795;50.796;3.860;2024-03-02T14:53:47;10.70;99.90
21271;DHT22;10795;50.796;3.860;2024-03-02T14:56:14;10.80;99.90
21271;DHT22;10795;50.796;3.860;2024-03-02T14:58:42;10.70;99.90
21271;DHT22;10795;50.796;3.860;2024-03-02T15:01:07;10.70;99.90
21271;DHT22;10795;50.796;3.860;2024-03-02T15:03:37;10.80;99.90
21271;DHT22;10795;50.796;3.860;2024-03-02T15:06:03;10.90;99.90
21271;DHT22;10795;50.796;3.860;2024-03-02T15:08:33;10.90;99.90
21271;DHT22;10795;50.796;3.860;2024-03-02T15:11:01;10.90;99.90
21271;DHT22;10795;50.796;3.860;2024-03-02T15:13:29;11.00;99.90
21271;DHT22;10795;50.796;3.860;2024-03-02T15:15:55;11.00;99.90
21271;DHT22;10795;50.796;3.860;2024-03-02T15:18:24;11.00;99.90
21271;DHT22;10795;50.796;3.860;2024-03-02T15:20:49;10.90;99.90
21271;DHT22;10795;50.796;3.860;2024-03-02T15:23:17;11.00;99.90
21271;DHT22;10795;50.796;3.860;2024-03-02T15:25:46;11.10;99.90
21271;DHT22;10795;50.796;3.860;2024-03-02T15:28:12;11.00;99.90
21271;DHT22;10795;50.796;3.860;2024-03-02T15:30:37;11.00;99.90
21271;DHT22;10795;50.796;3.860;2024-03-02T15:33:05;11.00;99.90
21271;DHT22;10795;50.796;3.860;2024-03-02T15:35:31;11.00;99.90
21271;DHT22;10795;50.796;3.860;2024-03-02T15:37:57;11.00;99.90
21271;DHT22;10795;50.796;3.860;2024-03-02T15:40:23;11.00;99.90
21271;DHT22;10795;50.796;3.860;2024-03-02T15:42:51;11.10;99.90
21271;DHT22;10795;50.796;3.860;2024-03-02T15:45:20;11.00;99.90
21271;DHT22;10795;50.796;3.860;2024-03-02T15:47:46;11.00;99.90
21271;DHT22;10795;50.796;3.860;2024-03-02T15:50:14;11.10;99.90
21271;DHT22;10795;50.796;3.860;2024-03-02T15:52:40;11.10;99.90
21271;DHT22;10795;50.796;3.860;2024-03-02T15:55:08;11.20;99.90
21271;DHT22;10795;50.796;3.860;2024-03-02T15:57:35;11.20;99.90
21271;DHT22;10795;50.796;3.860;2024-03-02T16:00:01;11.00;99.90
21271;DHT22;10795;50.796;3.860;2024-03-02T16:02:37;11.10;99.90